sensor_id;sensor_type;location;lat;lon;timestamp;pressure;altitude;pressure_sealevel;temperature;humidity
24752;BME280;27246;52.376;4.628;2023-08-21T00:03:48;102185.19;;;19.71;82.90
24752;BME280;27246;52.376;4.628;2023-08-21T00:08:50;102189.88;;;19.71;82.72
24752;BME280;27246;52.376;4.628;2023-08-21T00:13:52;102190.94;;;19.70;82.66
24752;BME280;27246;52.376;4.628;2023-08-21T00:18:54;102191.53;;;19.65;83.05
24752;BME280;27246;52.376;4.628;2023-08-21T00:23:56;102199.25;;;19.63;82.94
24752;BME280;27246;52.376;4.628;2023-08-21T00:28:57;102189.38;;;19.61;82.66
24752;BME280;27246;52.376;4.628;2023-08-21T00:33:59;102188.06;;;19.56;82.01
24752;BME280;27246;52.376;4.628;2023-08-21T00:39:01;102181.81;;;19.54;82.00
24752;BME280;27246;52.376;4.628;2023-08-21T00:44:03;102189.31;;;19.47;82.41
24752;BME280;27246;52.376;4.628;2023-08-21T00:49:06;102181.75;;;19.41;81.73
24752;BME280;27246;52.376;4.628;2023-08-21T00:54:08;102183.13;;;19.24;82.14
24752;BME280;27246;52.376;4.628;2023-08-21T00:59:10;102182.31;;;19.30;82.52
24752;BME280;27246;52.376;4.628;2023-08-21T01:04:12;102183.34;;;19.29;81.75
24752;BME280;27246;52.376;4.628;2023-08-21T01:09:36;102185.88;;;19.17;82.98
24752;BME280;27246;52.376;4.628;2023-08-21T01:15:08;102189.84;;;19.08;85.26
24752;BME280;27246;52.376;4.628;2023-08-21T01:20:11;102184.69;;;19.05;85.10
24752;BME280;27246;52.376;4.628;2023-08-21T01:25:13;102188.84;;;19.15;84.08
24752;BME280;27246;52.376;4.628;2023-08-21T01:30:17;102192.97;;;19.19;83.19
24752;BME280;27246;52.376;4.628;2023-08-21T01:35:20;102186.91;;;19.16;83.48
24752;BME280;27246;52.376;4.628;2023-08-21T01:40:25;102186.72;;;19.17;83.54
24752;BME280;27246;52.376;4.628;2023-08-21T01:45:27;102198.06;;;19.16;83.08
24752;BME280;27246;52.376;4.628;2023-08-21T01:50:28;102204.97;;;19.20;83.24
24752;BME280;27246;52.376;4.628;2023-08-21T01:55:30;102204.06;;;19.13;83.82
24752;BME280;27246;52.376;4.628;2023-08-21T02:00:32;102198.03;;;19.09;84.33
24752;BME280;27246;52.376;4.628;2023-08-21T02:05:38;102203.28;;;18.97;84.54
24752;BME280;27246;52.376;4.628;2023-08-21T02:10:50;102211.38;;;18.92;84.58
24752;BME280;27246;52.376;4.628;2023-08-21T02:15:52;102204.75;;;18.93;84.34
24752;BME280;27246;52.376;4.628;2023-08-21T02:20:54;102196.44;;;19.00;83.83
24752;BME280;27246;52.376;4.628;2023-08-21T02:25:56;102196.63;;;18.98;83.67
24752;BME280;27246;52.376;4.628;2023-08-21T02:30:57;102199.19;;;18.93;83.52
24752;BME280;27246;52.376;4.628;2023-08-21T02:35:59;102201.63;;;18.82;84.19
24752;BME280;27246;52.376;4.628;2023-08-21T02:41:04;102199.94;;;18.81;84.19
24752;BME280;27246;52.376;4.628;2023-08-21T02:46:07;102203.38;;;18.83;84.26
24752;BME280;27246;52.376;4.628;2023-08-21T02:51:10;102192.13;;;18.76;84.08
24752;BME280;27246;52.376;4.628;2023-08-21T02:56:11;102195.13;;;18.74;84.56
24752;BME280;27246;52.376;4.628;2023-08-21T03:01:13;102189.00;;;18.64;84.78
24752;BME280;27246;52.376;4.628;2023-08-21T03:06:15;102184.22;;;18.58;84.99
24752;BME280;27246;52.376;4.628;2023-08-21T03:11:18;102191.53;;;18.59;85.08
24752;BME280;27246;52.376;4.628;2023-08-21T03:16:20;102188.31;;;18.62;84.45
24752;BME280;27246;52.376;4.628;2023-08-21T03:21:22;102182.50;;;18.57;84.02
24752;BME280;27246;52.376;4.628;2023-08-21T03:26:24;102173.47;;;18.55;84.58
24752;BME280;27246;52.376;4.628;2023-08-21T03:31:27;102180.50;;;18.51;84.93
24752;BME280;27246;52.376;4.628;2023-08-21T03:36:30;102175.06;;;18.43;85.58
24752;BME280;27246;52.376;4.628;2023-08-21T03:41:37;102180.16;;;18.39;85.88
24752;BME280;27246;52.376;4.628;2023-08-21T03:46:38;102177.19;;;18.41;85.02
24752;BME280;27246;52.376;4.628;2023-08-21T03:51:40;102184.03;;;18.38;84.67
24752;BME280;27246;52.376;4.628;2023-08-21T03:56:43;102185.28;;;18.35;84.55
24752;BME280;27246;52.376;4.628;2023-08-21T04:01:45;102184.78;;;18.32;84.83
24752;BME280;27246;52.376;4.628;2023-08-21T04:06:47;102185.56;;;18.26;84.84
24752;BME280;27246;52.376;4.628;2023-08-21T04:11:49;102177.56;;;18.16;86.18
24752;BME280;27246;52.376;4.628;2023-08-21T04:16:50;102176.97;;;18.21;86.57
24752;BME280;27246;52.376;4.628;2023-08-21T04:21:53;102181.69;;;18.20;86.28
24752;BME280;27246;52.376;4.628;2023-08-21T04:26:55;102184.47;;;18.20;86.28
24752;BME280;27246;52.376;4.628;2023-08-21T04:31:57;102185.63;;;18.11;85.35
24752;BME280;27246;52.376;4.628;2023-08-21T04:36:59;102182.78;;;18.04;86.34
24752;BME280;27246;52.376;4.628;2023-08-21T04:42:02;102185.06;;;18.01;86.80
24752;BME280;27246;52.376;4.628;2023-08-21T04:47:23;102190.16;;;17.97;86.79
24752;BME280;27246;52.376;4.628;2023-08-21T04:52:28;102188.22;;;17.97;86.62
24752;BME280;27246;52.376;4.628;2023-08-21T04:57:30;102189.56;;;18.02;86.25
24752;BME280;27246;52.376;4.628;2023-08-21T05:02:33;102194.88;;;17.96;86.49
24752;BME280;27246;52.376;4.628;2023-08-21T05:07:37;102193.81;;;17.97;86.74
24752;BME280;27246;52.376;4.628;2023-08-21T05:12:39;102201.13;;;17.98;87.28
24752;BME280;27246;52.376;4.628;2023-08-21T05:17:41;102200.34;;;18.05;87.39
24752;BME280;27246;52.376;4.628;2023-08-21T05:22:43;102210.03;;;18.09;87.77
24752;BME280;27246;52.376;4.628;2023-08-21T05:27:47;102206.16;;;18.25;87.49
24752;BME280;27246;52.376;4.628;2023-08-21T05:32:48;102195.59;;;18.20;89.19
24752;BME280;27246;52.376;4.628;2023-08-21T05:37:52;102208.09;;;18.24;89.45
24752;BME280;27246;52.376;4.628;2023-08-21T05:42:55;102207.56;;;18.35;89.35
24752;BME280;27246;52.376;4.628;2023-08-21T05:47:57;102211.75;;;18.46;89.21
24752;BME280;27246;52.376;4.628;2023-08-21T05:52:59;102214.56;;;18.46;89.43
24752;BME280;27246;52.376;4.628;2023-08-21T05:58:03;102211.28;;;18.43;89.91
24752;BME280;27246;52.376;4.628;2023-08-21T06:03:07;102215.22;;;18.48;90.82
24752;BME280;27246;52.376;4.628;2023-08-21T06:08:32;102213.75;;;18.74;90.20
24752;BME280;27246;52.376;4.628;2023-08-21T06:13:34;102214.53;;;18.83;89.65
24752;BME280;27246;52.376;4.628;2023-08-21T06:18:39;102222.09;;;18.74;90.17
24752;BME280;27246;52.376;4.628;2023-08-21T06:23:41;102213.66;;;18.82;90.90
24752;BME280;27246;52.376;4.628;2023-08-21T06:28:43;102220.63;;;18.93;91.56
24752;BME280;27246;52.376;4.628;2023-08-21T06:33:45;102224.94;;;18.95;92.56
24752;BME280;27246;52.376;4.628;2023-08-21T06:38:47;102226.91;;;19.02;93.86
24752;BME280;27246;52.376;4.628;2023-08-21T06:43:48;102224.59;;;19.05;95.36
24752;BME280;27246;52.376;4.628;2023-08-21T06:48:52;102224.50;;;19.20;96.03
24752;BME280;27246;52.376;4.628;2023-08-21T06:53:54;102229.84;;;19.15;97.78
24752;BME280;27246;52.376;4.628;2023-08-21T06:58:56;102230.75;;;19.22;99.05
24752;BME280;27246;52.376;4.628;2023-08-21T07:03:58;102220.09;;;19.32;100.00
24752;BME280;27246;52.376;4.628;2023-08-21T07:09:00;102224.47;;;19.42;100.00
24752;BME280;27246;52.376;4.628;2023-08-21T07:14:01;102227.97;;;19.57;100.00
24752;BME280;27246;52.376;4.628;2023-08-21T07:19:03;102224.69;;;19.75;100.00
24752;BME280;27246;52.376;4.628;2023-08-21T07:24:05;102233.38;;;19.93;100.00
24752;BME280;27246;52.376;4.628;2023-08-21T07:29:07;102230.94;;;20.12;100.00
24752;BME280;27246;52.376;4.628;2023-08-21T07:34:10;102235.91;;;20.30;100.00
24752;BME280;27246;52.376;4.628;2023-08-21T07:39:11;102237.47;;;20.46;100.00
24752;BME280;27246;52.376;4.628;2023-08-21T07:44:13;102237.34;;;20.61;100.00
24752;BME280;27246;52.376;4.628;2023-08-21T07:49:15;102241.91;;;20.75;100.00
24752;BME280;27246;52.376;4.628;2023-08-21T07:54:16;102242.56;;;20.84;99.71
24752;BME280;27246;52.376;4.628;2023-08-21T07:59:18;102250.09;;;20.90;98.48
24752;BME280;27246;52.376;4.628;2023-08-21T08:04:21;102257.38;;;20.84;99.20
24752;BME280;27246;52.376;4.628;2023-08-21T08:09:24;102251.81;;;21.04;98.72
24752;BME280;27246;52.376;4.628;2023-08-21T08:14:25;102256.38;;;21.32;96.54
24752;BME280;27246;52.376;4.628;2023-08-21T08:19:27;102250.97;;;21.30;93.56
24752;BME280;27246;52.376;4.628;2023-08-21T08:24:29;102252.28;;;21.41;93.89
24752;BME280;27246;52.376;4.628;2023-08-21T08:29:31;102257.44;;;21.71;91.29
24752;BME280;27246;52.376;4.628;2023-08-21T08:34:33;102252.25;;;21.88;87.88
24752;BME280;27246;52.376;4.628;2023-08-21T08:39:37;102251.13;;;22.02;86.23
24752;BME280;27246;52.376;4.628;2023-08-21T08:44:39;102249.09;;;22.29;85.31
24752;BME280;27246;52.376;4.628;2023-08-21T08:49:43;102249.19;;;22.54;83.43
24752;BME280;27246;52.376;4.628;2023-08-21T08:54:45;102269.09;;;22.85;80.33
24752;BME280;27246;52.376;4.628;2023-08-21T08:59:48;102265.13;;;22.92;77.63
24752;BME280;27246;52.376;4.628;2023-08-21T09:04:49;102265.91;;;23.38;75.52
24752;BME280;27246;52.376;4.628;2023-08-21T09:09:51;102268.59;;;23.51;73.08
24752;BME280;27246;52.376;4.628;2023-08-21T09:14:54;102260.28;;;23.63;71.86
24752;BME280;27246;52.376;4.628;2023-08-21T09:20:03;102253.25;;;23.98;73.36
24752;BME280;27246;52.376;4.628;2023-08-21T09:25:08;102250.09;;;24.24;71.63
24752;BME280;27246;52.376;4.628;2023-08-21T09:30:12;102242.94;;;24.10;69.70
24752;BME280;27246;52.376;4.628;2023-08-21T09:35:17;102249.72;;;24.21;66.62
24752;BME280;27246;52.376;4.628;2023-08-21T09:40:22;102245.84;;;24.52;65.52
24752;BME280;27246;52.376;4.628;2023-08-21T09:45:25;102241.47;;;24.56;65.22
24752;BME280;27246;52.376;4.628;2023-08-21T09:50:29;102237.41;;;24.70;65.00
24752;BME280;27246;52.376;4.628;2023-08-21T09:55:32;102250.91;;;24.92;62.18
24752;BME280;27246;52.376;4.628;2023-08-21T10:00:37;102259.41;;;25.15;63.02
24752;BME280;27246;52.376;4.628;2023-08-21T10:05:41;102254.06;;;24.84;61.11
24752;BME280;27246;52.376;4.628;2023-08-21T10:10:43;102250.13;;;25.27;61.79
24752;BME280;27246;52.376;4.628;2023-08-21T10:15:45;102249.81;;;25.35;58.59
24752;BME280;27246;52.376;4.628;2023-08-21T10:20:49;102246.38;;;25.57;58.21
24752;BME280;27246;52.376;4.628;2023-08-21T10:25:59;102252.50;;;25.77;57.27
24752;BME280;27246;52.376;4.628;2023-08-21T10:42:15;102262.19;;;25.93;54.06
24752;BME280;27246;52.376;4.628;2023-08-21T10:47:22;102257.63;;;26.15;52.19
24752;BME280;27246;52.376;4.628;2023-08-21T10:52:31;102244.69;;;26.31;52.18
24752;BME280;27246;52.376;4.628;2023-08-21T10:57:37;102244.88;;;26.53;50.07
24752;BME280;27246;52.376;4.628;2023-08-21T11:02:41;102252.47;;;26.65;49.10
24752;BME280;27246;52.376;4.628;2023-08-21T11:07:45;102250.63;;;26.87;48.11
24752;BME280;27246;52.376;4.628;2023-08-21T11:12:48;102250.63;;;26.87;48.86
24752;BME280;27246;52.376;4.628;2023-08-21T11:17:56;102243.25;;;26.69;44.62
24752;BME280;27246;52.376;4.628;2023-08-21T11:23:00;102258.25;;;26.87;46.89
24752;BME280;27246;52.376;4.628;2023-08-21T11:28:05;102246.84;;;27.27;46.96
24752;BME280;27246;52.376;4.628;2023-08-21T11:33:12;102246.50;;;27.24;48.05
24752;BME280;27246;52.376;4.628;2023-08-21T11:38:21;102248.88;;;27.49;47.17
24752;BME280;27246;52.376;4.628;2023-08-21T11:43:39;102255.31;;;27.61;48.80
24752;BME280;27246;52.376;4.628;2023-08-21T11:48:41;102254.97;;;27.58;46.58
24752;BME280;27246;52.376;4.628;2023-08-21T11:53:47;102261.28;;;27.65;43.98
24752;BME280;27246;52.376;4.628;2023-08-21T11:58:51;102267.00;;;27.31;44.55
24752;BME280;27246;52.376;4.628;2023-08-21T12:03:53;102265.25;;;27.64;45.18
24752;BME280;27246;52.376;4.628;2023-08-21T12:08:59;102245.81;;;27.67;44.86
24752;BME280;27246;52.376;4.628;2023-08-21T12:14:01;102243.69;;;27.97;45.64
24752;BME280;27246;52.376;4.628;2023-08-21T12:19:03;102242.50;;;27.92;45.45
24752;BME280;27246;52.376;4.628;2023-08-21T12:24:05;102247.91;;;27.94;46.14
24752;BME280;27246;52.376;4.628;2023-08-21T12:29:08;102253.38;;;28.01;45.75
24752;BME280;27246;52.376;4.628;2023-08-21T12:34:09;102252.13;;;27.91;45.04
24752;BME280;27246;52.376;4.628;2023-08-21T12:39:11;102247.91;;;27.94;45.09
24752;BME280;27246;52.376;4.628;2023-08-21T12:44:13;102241.09;;;27.56;44.68
24752;BME280;27246;52.376;4.628;2023-08-21T12:49:15;102247.09;;;27.60;45.72
24752;BME280;27246;52.376;4.628;2023-08-21T12:54:17;102238.50;;;27.88;44.35
24752;BME280;27246;52.376;4.628;2023-08-21T12:59:19;102233.31;;;28.02;44.81
24752;BME280;27246;52.376;4.628;2023-08-21T13:04:21;102236.03;;;28.14;45.95
24752;BME280;27246;52.376;4.628;2023-08-21T13:09:22;102237.38;;;28.11;44.73
24752;BME280;27246;52.376;4.628;2023-08-21T13:14:26;102239.38;;;28.11;45.03
24752;BME280;27246;52.376;4.628;2023-08-21T13:19:32;102226.41;;;28.15;45.14
24752;BME280;27246;52.376;4.628;2023-08-21T13:24:34;102228.75;;;27.62;45.73
24752;BME280;27246;52.376;4.628;2023-08-21T13:29:37;102233.50;;;27.79;45.77
24752;BME280;27246;52.376;4.628;2023-08-21T13:34:39;102223.66;;;28.20;45.74
24752;BME280;27246;52.376;4.628;2023-08-21T13:39:41;102232.53;;;28.07;45.96
24752;BME280;27246;52.376;4.628;2023-08-21T13:44:44;102233.66;;;28.06;45.22
24752;BME280;27246;52.376;4.628;2023-08-21T13:49:46;102220.47;;;27.95;46.14
24752;BME280;27246;52.376;4.628;2023-08-21T13:54:48;102220.16;;;27.74;45.65
24752;BME280;27246;52.376;4.628;2023-08-21T13:59:49;102215.03;;;27.71;46.17
24752;BME280;27246;52.376;4.628;2023-08-21T14:04:51;102218.25;;;27.58;47.45
24752;BME280;27246;52.376;4.628;2023-08-21T14:09:54;102200.50;;;27.62;47.94
24752;BME280;27246;52.376;4.628;2023-08-21T14:14:56;102209.13;;;27.72;48.04
24752;BME280;27246;52.376;4.628;2023-08-21T14:19:58;102204.06;;;27.91;48.14
24752;BME280;27246;52.376;4.628;2023-08-21T14:24:59;102200.09;;;27.92;48.22
24752;BME280;27246;52.376;4.628;2023-08-21T14:30:01;102197.41;;;28.03;48.67
24752;BME280;27246;52.376;4.628;2023-08-21T14:35:06;102194.97;;;27.72;46.98
24752;BME280;27246;52.376;4.628;2023-08-21T14:40:11;102190.06;;;27.46;47.53
24752;BME280;27246;52.376;4.628;2023-08-21T14:45:13;102186.56;;;27.22;47.32
24752;BME280;27246;52.376;4.628;2023-08-21T14:50:18;102174.22;;;27.45;47.26
24752;BME280;27246;52.376;4.628;2023-08-21T14:55:20;102171.72;;;27.48;47.43
24752;BME280;27246;52.376;4.628;2023-08-21T15:00:23;102169.50;;;27.50;46.40
24752;BME280;27246;52.376;4.628;2023-08-21T15:05:26;102176.63;;;27.36;46.87
24752;BME280;27246;52.376;4.628;2023-08-21T15:10:28;102159.78;;;27.41;46.58
24752;BME280;27246;52.376;4.628;2023-08-21T15:15:30;102154.47;;;27.28;46.52
24752;BME280;27246;52.376;4.628;2023-08-21T15:20:32;102145.06;;;27.05;47.68
24752;BME280;27246;52.376;4.628;2023-08-21T15:25:33;102138.78;;;27.20;47.27
24752;BME280;27246;52.376;4.628;2023-08-21T15:30:36;102148.31;;;26.97;47.48
24752;BME280;27246;52.376;4.628;2023-08-21T15:35:39;102144.03;;;27.11;47.95
24752;BME280;27246;52.376;4.628;2023-08-21T15:40:40;102135.72;;;26.88;47.64
24752;BME280;27246;52.376;4.628;2023-08-21T15:45:45;102138.97;;;26.80;48.11
24752;BME280;27246;52.376;4.628;2023-08-21T15:50:48;102137.44;;;26.89;48.41
24752;BME280;27246;52.376;4.628;2023-08-21T15:55:50;102135.97;;;26.86;48.92
24752;BME280;27246;52.376;4.628;2023-08-21T16:00:52;102122.66;;;26.65;49.26
24752;BME280;27246;52.376;4.628;2023-08-21T16:05:53;102128.53;;;26.63;48.66
24752;BME280;27246;52.376;4.628;2023-08-21T16:10:55;102126.06;;;26.67;48.65
24752;BME280;27246;52.376;4.628;2023-08-21T16:15:57;102115.91;;;26.54;48.46
24752;BME280;27246;52.376;4.628;2023-08-21T16:21:01;102118.06;;;26.47;48.18
24752;BME280;27246;52.376;4.628;2023-08-21T16:26:03;102107.50;;;26.25;49.51
24752;BME280;27246;52.376;4.628;2023-08-21T16:31:06;102106.94;;;26.40;49.50
24752;BME280;27246;52.376;4.628;2023-08-21T16:36:09;102098.34;;;26.18;49.00
24752;BME280;27246;52.376;4.628;2023-08-21T16:41:11;102096.63;;;26.17;49.70
24752;BME280;27246;52.376;4.628;2023-08-21T16:46:12;102094.56;;;26.12;49.91
24752;BME280;27246;52.376;4.628;2023-08-21T16:51:14;102101.06;;;26.13;49.20
24752;BME280;27246;52.376;4.628;2023-08-21T16:56:16;102098.09;;;25.79;49.75
24752;BME280;27246;52.376;4.628;2023-08-21T17:01:18;102103.94;;;25.89;49.10
24752;BME280;27246;52.376;4.628;2023-08-21T17:06:20;102106.66;;;25.84;49.86
24752;BME280;27246;52.376;4.628;2023-08-21T17:11:23;102088.09;;;25.71;50.19
24752;BME280;27246;52.376;4.628;2023-08-21T17:16:25;102092.03;;;25.59;50.11
24752;BME280;27246;52.376;4.628;2023-08-21T17:21:27;102085.75;;;25.68;50.07
24752;BME280;27246;52.376;4.628;2023-08-21T17:26:31;102075.25;;;25.52;50.62
24752;BME280;27246;52.376;4.628;2023-08-21T17:31:34;102062.06;;;25.41;50.20
24752;BME280;27246;52.376;4.628;2023-08-21T17:36:35;102070.75;;;25.15;50.82
24752;BME280;27246;52.376;4.628;2023-08-21T17:41:37;102069.53;;;25.00;51.22
24752;BME280;27246;52.376;4.628;2023-08-21T17:46:39;102062.09;;;24.93;50.53
24752;BME280;27246;52.376;4.628;2023-08-21T17:51:41;102064.88;;;24.82;51.14
24752;BME280;27246;52.376;4.628;2023-08-21T17:56:43;102070.16;;;24.78;49.54
24752;BME280;27246;52.376;4.628;2023-08-21T18:01:45;102079.91;;;24.52;49.90
24752;BME280;27246;52.376;4.628;2023-08-21T18:06:47;102069.59;;;24.34;50.99
24752;BME280;27246;52.376;4.628;2023-08-21T18:11:48;102059.38;;;24.21;52.20
24752;BME280;27246;52.376;4.628;2023-08-21T18:16:50;102066.34;;;24.19;52.67
24752;BME280;27246;52.376;4.628;2023-08-21T18:21:52;102074.84;;;24.00;52.59
24752;BME280;27246;52.376;4.628;2023-08-21T18:26:54;102079.41;;;23.83;53.44
24752;BME280;27246;52.376;4.628;2023-08-21T18:31:56;102066.50;;;23.75;53.74
24752;BME280;27246;52.376;4.628;2023-08-21T18:36:59;102071.06;;;23.58;54.21
24752;BME280;27246;52.376;4.628;2023-08-21T18:42:01;102050.31;;;23.40;54.76
24752;BME280;27246;52.376;4.628;2023-08-21T18:47:03;102057.72;;;23.34;56.07
24752;BME280;27246;52.376;4.628;2023-08-21T18:52:07;102062.81;;;23.26;56.89
24752;BME280;27246;52.376;4.628;2023-08-21T18:57:09;102071.53;;;23.17;57.83
24752;BME280;27246;52.376;4.628;2023-08-21T19:02:13;102069.03;;;23.09;58.53
24752;BME280;27246;52.376;4.628;2023-08-21T19:07:16;102069.31;;;23.01;59.64
24752;BME280;27246;52.376;4.628;2023-08-21T19:12:18;102075.66;;;22.90;60.28
24752;BME280;27246;52.376;4.628;2023-08-21T19:17:19;102086.09;;;22.83;60.27
24752;BME280;27246;52.376;4.628;2023-08-21T19:22:21;102078.13;;;22.80;60.87
24752;BME280;27246;52.376;4.628;2023-08-21T19:27:23;102083.19;;;22.71;61.66
24752;BME280;27246;52.376;4.628;2023-08-21T19:32:25;102083.69;;;22.61;62.89
24752;BME280;27246;52.376;4.628;2023-08-21T19:37:27;102078.72;;;22.63;63.84
24752;BME280;27246;52.376;4.628;2023-08-21T19:42:28;102084.13;;;22.58;64.26
24752;BME280;27246;52.376;4.628;2023-08-21T19:47:30;102086.03;;;22.39;65.19
24752;BME280;27246;52.376;4.628;2023-08-21T19:52:32;102074.91;;;22.19;65.78
24752;BME280;27246;52.376;4.628;2023-08-21T19:57:34;102066.75;;;22.24;66.86
24752;BME280;27246;52.376;4.628;2023-08-21T20:02:39;102068.88;;;22.22;67.80
24752;BME280;27246;52.376;4.628;2023-08-21T20:07:41;102085.47;;;22.24;67.53
24752;BME280;27246;52.376;4.628;2023-08-21T20:12:44;102087.88;;;22.20;68.73
24752;BME280;27246;52.376;4.628;2023-08-21T20:17:46;102080.53;;;22.19;69.10
24752;BME280;27246;52.376;4.628;2023-08-21T20:22:48;102075.03;;;22.06;69.85
24752;BME280;27246;52.376;4.628;2023-08-21T20:27:50;102068.16;;;22.02;70.80
24752;BME280;27246;52.376;4.628;2023-08-21T20:32:52;102067.31;;;21.94;71.53
24752;BME280;27246;52.376;4.628;2023-08-21T20:37:54;102063.31;;;21.84;72.31
24752;BME280;27246;52.376;4.628;2023-08-21T20:42:55;102074.72;;;21.82;72.59
24752;BME280;27246;52.376;4.628;2023-08-21T20:47:57;102080.13;;;21.77;73.37
24752;BME280;27246;52.376;4.628;2023-08-21T20:52:59;102064.00;;;21.72;73.76
24752;BME280;27246;52.376;4.628;2023-08-21T20:58:05;102062.97;;;21.60;74.09
24752;BME280;27246;52.376;4.628;2023-08-21T21:03:09;102066.19;;;21.64;74.63
24752;BME280;27246;52.376;4.628;2023-08-21T21:08:11;102065.34;;;21.56;74.92
24752;BME280;27246;52.376;4.628;2023-08-21T21:13:13;102062.34;;;21.58;75.66
24752;BME280;27246;52.376;4.628;2023-08-21T21:18:15;102058.06;;;21.55;75.86
24752;BME280;27246;52.376;4.628;2023-08-21T21:23:16;102069.03;;;21.50;76.52
24752;BME280;27246;52.376;4.628;2023-08-21T21:28:18;102071.84;;;21.50;76.51
24752;BME280;27246;52.376;4.628;2023-08-21T21:33:20;102063.25;;;21.45;76.36
24752;BME280;27246;52.376;4.628;2023-08-21T21:38:22;102060.00;;;21.42;76.38
24752;BME280;27246;52.376;4.628;2023-08-21T21:43:27;102055.53;;;21.27;76.90
24752;BME280;27246;52.376;4.628;2023-08-21T21:48:30;102051.88;;;21.20;76.60
24752;BME280;27246;52.376;4.628;2023-08-21T21:53:32;102062.00;;;21.14;76.75
24752;BME280;27246;52.376;4.628;2023-08-21T21:58:34;102065.06;;;21.13;76.68
24752;BME280;27246;52.376;4.628;2023-08-21T22:03:36;102063.78;;;21.09;77.19
24752;BME280;27246;52.376;4.628;2023-08-21T22:08:40;102040.53;;;21.02;78.08
24752;BME280;27246;52.376;4.628;2023-08-21T22:13:43;102063.56;;;21.04;78.43
24752;BME280;27246;52.376;4.628;2023-08-21T22:18:45;102054.53;;;20.95;79.00
24752;BME280;27246;52.376;4.628;2023-08-21T22:23:47;102053.03;;;20.86;79.75
24752;BME280;27246;52.376;4.628;2023-08-21T22:28:48;102055.41;;;20.89;80.17
24752;BME280;27246;52.376;4.628;2023-08-21T22:33:50;102033.91;;;20.83;80.72
24752;BME280;27246;52.376;4.628;2023-08-21T22:38:52;102035.44;;;20.78;82.46
24752;BME280;27246;52.376;4.628;2023-08-21T22:43:54;102037.13;;;20.66;83.11
24752;BME280;27246;52.376;4.628;2023-08-21T22:48:56;102032.88;;;20.70;83.06
24752;BME280;27246;52.376;4.628;2023-08-21T22:53:57;102006.16;;;20.68;83.28
24752;BME280;27246;52.376;4.628;2023-08-21T22:58:59;101978.44;;;20.53;84.15
24752;BME280;27246;52.376;4.628;2023-08-21T23:04:01;101962.09;;;20.50;85.09
24752;BME280;27246;52.376;4.628;2023-08-21T23:09:03;101953.50;;;20.45;86.12
24752;BME280;27246;52.376;4.628;2023-08-21T23:14:09;101955.88;;;20.34;86.79
24752;BME280;27246;52.376;4.628;2023-08-21T23:19:15;101968.34;;;20.18;87.12
24752;BME280;27246;52.376;4.628;2023-08-21T23:24:17;101956.09;;;20.06;88.44
24752;BME280;27246;52.376;4.628;2023-08-21T23:29:19;101975.25;;;20.16;88.40
24752;BME280;27246;52.376;4.628;2023-08-21T23:34:22;101973.09;;;20.18;88.68
24752;BME280;27246;52.376;4.628;2023-08-21T23:39:24;101983.41;;;20.24;88.35
24752;BME280;27246;52.376;4.628;2023-08-21T23:44:25;101968.56;;;20.30;87.64
24752;BME280;27246;52.376;4.628;2023-08-21T23:49:27;101966.84;;;20.16;87.47
24752;BME280;27246;52.376;4.628;2023-08-21T23:54:29;101966.19;;;20.07;88.29
24752;BME280;27246;52.376;4.628;2023-08-21T23:59:30;101974.16;;;20.17;88.02
